Time;durP1;ratioP1;P1;durP2;ratioP2;P2;SDS_P1;SDS_P2;PMS_P1;PMS_P2;Temp;Humidity;BMP_temperature;BMP_pressure;BME280_temperature;BME280_humidity;BME280_pressure;Samples;Min_cycle;Max_cycle;Signal;HPM_P1;HPM_P2
2022/07/20 00:00:10;;;;;;;4.33;3.40;;;;;25.00;100289.00;;;;2078337;28;20670;-56
2022/07/20 00:01:11;;;;;;;3.70;3.43;;;;;25.00;100299.00;;;;2071215;28;20632;-56
2022/07/20 00:02:11;;;;;;;4.27;3.70;;;;;25.00;100290.00;;;;2069568;28;20210;-56
2022/07/20 00:03:11;;;;;;;3.90;3.60;;;;;25.00;100288.00;;;;2070103;28;20237;-56
2022/07/20 00:04:12;;;;;;;4.00;3.70;;;;;25.00;100295.00;;;;2070006;28;20214;-57
2022/07/20 00:05:12;;;;;;;3.90;3.50;;;;;25.00;100286.00;;;;2075090;28;20230;-56
2022/07/20 00:06:13;;;;;;;3.83;3.43;;;;;25.00;100289.00;;;;2077353;28;21618;-61
2022/07/20 00:07:13;;;;;;;5.50;3.60;;;;;25.00;100296.00;;;;2077548;28;21067;-57
2022/07/20 00:08:14;;;;;;;3.63;3.20;;;;;24.90;100292.00;;;;2077624;28;20213;-57
2022/07/20 00:11:52;;;;;;;8.10;4.40;;;;;24.90;100318.00;;;;2077453;28;20210;-57
2022/07/20 00:12:52;;;;;;;4.37;3.77;;;;;24.80;100292.00;;;;2078634;28;20678;-57
2022/07/20 00:13:54;;;;;;;4.10;3.70;;;;;24.80;100291.00;;;;2074349;28;20590;-57
2022/07/20 00:14:54;;;;;;;3.90;3.50;;;;;24.80;100284.00;;;;2069673;28;20222;-57
2022/07/20 00:15:55;;;;;;;4.23;3.80;;;;;24.80;100285.00;;;;2077925;28;20488;-57
2022/07/20 00:16:55;;;;;;;4.10;3.67;;;;;24.80;100289.00;;;;2078058;28;20236;-56
2022/07/20 00:17:55;;;;;;;4.33;3.77;;;;;24.80;100288.00;;;;2076973;28;20288;-57
2022/07/20 00:18:56;;;;;;;4.00;3.50;;;;;24.70;100279.00;;;;2078656;28;20218;-57
2022/07/20 00:19:56;;;;;;;6.07;3.87;;;;;24.70;100284.00;;;;2077901;28;20560;-57
2022/07/20 00:20:56;;;;;;;4.33;3.70;;;;;24.80;100284.00;;;;2077657;28;20305;-57
2022/07/20 00:21:57;;;;;;;3.83;3.53;;;;;24.80;100282.00;;;;2078761;28;20229;-56
2022/07/20 00:22:58;;;;;;;5.60;3.80;;;;;24.80;100281.00;;;;2078336;28;20225;-57
2022/07/20 00:23:58;;;;;;;4.25;3.47;;;;;24.80;100282.00;;;;2078241;28;20216;-57
2022/07/20 00:24:59;;;;;;;3.93;3.53;;;;;24.80;100281.00;;;;2077643;28;20210;-56
2022/07/20 00:25:59;;;;;;;7.93;3.53;;;;;24.80;100281.00;;;;2078724;28;20224;-56
2022/07/20 00:26:59;;;;;;;4.33;3.80;;;;;24.80;100277.00;;;;2078488;28;20214;-57
2022/07/20 00:28:00;;;;;;;5.43;3.57;;;;;24.70;100284.00;;;;2076927;28;20338;-56
2022/07/20 00:29:00;;;;;;;5.63;3.83;;;;;24.80;100283.00;;;;2077770;28;20213;-56
2022/07/20 00:30:01;;;;;;;4.77;3.60;;;;;24.80;100280.00;;;;2075413;28;20268;-57
2022/07/20 00:31:01;;;;;;;3.78;3.47;;;;;24.80;100283.00;;;;2070310;28;20221;-57
2022/07/20 00:32:02;;;;;;;3.80;3.37;;;;;24.70;100283.00;;;;2058096;28;20211;-57
2022/07/20 00:33:02;;;;;;;5.57;3.30;;;;;24.80;100277.00;;;;2061693;28;20250;-57
2022/07/20 00:34:03;;;;;;;4.10;3.47;;;;;24.80;100278.00;;;;2069935;28;20902;-56
2022/07/20 00:35:05;;;;;;;4.00;3.63;;;;;24.80;100278.00;;;;2069623;28;20691;-57
2022/07/20 00:36:06;;;;;;;4.38;3.35;;;;;24.80;100276.00;;;;2069722;28;20214;-57
2022/07/20 00:37:06;;;;;;;3.63;3.33;;;;;24.80;100280.00;;;;2070195;28;21127;-57
2022/07/20 00:38:07;;;;;;;4.20;3.73;;;;;24.90;100276.00;;;;2069389;28;20218;-56
2022/07/20 00:39:07;;;;;;;3.83;3.50;;;;;24.80;100273.00;;;;2069594;28;20296;-56
2022/07/20 00:40:08;;;;;;;3.77;3.30;;;;;24.80;100272.00;;;;2076835;28;20765;-56
2022/07/20 00:41:09;;;;;;;3.90;3.60;;;;;24.80;100275.00;;;;2077859;28;20233;-57
2022/07/20 00:42:09;;;;;;;4.17;3.73;;;;;24.80;100269.00;;;;2077740;28;20312;-56
2022/07/20 00:43:09;;;;;;;4.30;3.70;;;;;24.70;100280.00;;;;2078530;28;20736;-56
2022/07/20 00:44:10;;;;;;;4.63;3.80;;;;;24.70;100270.00;;;;2078380;28;20694;-56
2022/07/20 00:45:10;;;;;;;3.63;3.33;;;;;24.70;100267.00;;;;2078198;28;20227;-56
2022/07/20 00:46:11;;;;;;;6.97;4.00;;;;;24.70;100278.00;;;;2078655;28;20300;-56
2022/07/20 00:47:11;;;;;;;5.40;3.33;;;;;24.70;100266.00;;;;2078617;28;20307;-56
2022/07/20 00:48:12;;;;;;;8.87;3.90;;;;;24.70;100265.00;;;;2077530;28;20225;-57
2022/07/20 00:49:13;;;;;;;4.40;4.00;;;;;24.70;100268.00;;;;2078682;28;20697;-57
2022/07/20 00:50:13;;;;;;;4.55;3.92;;;;;24.70;100269.00;;;;2078407;28;20217;-57
2022/07/20 00:51:14;;;;;;;4.57;3.67;;;;;24.70;100260.00;;;;2078536;28;20224;-57
2022/07/20 00:52:14;;;;;;;4.87;4.27;;;;;24.60;100273.00;;;;2076835;28;20210;-57
2022/07/20 00:53:14;;;;;;;3.90;3.60;;;;;24.60;100269.00;;;;2061274;28;21588;-56
2022/07/20 00:54:15;;;;;;;4.53;3.67;;;;;24.60;100267.00;;;;2069477;28;20218;-56
2022/07/20 00:55:15;;;;;;;9.50;3.77;;;;;24.60;100264.00;;;;2069703;28;20364;-57
2022/07/20 00:56:16;;;;;;;4.37;3.97;;;;;24.60;100266.00;;;;2069617;28;20213;-57
2022/07/20 00:57:16;;;;;;;4.20;3.80;;;;;24.60;100260.00;;;;2069423;28;20273;-56
2022/07/20 00:58:16;;;;;;;4.13;3.83;;;;;24.70;100264.00;;;;2069544;28;20214;-56
2022/07/20 00:59:17;;;;;;;3.80;3.50;;;;;24.70;100261.00;;;;2070196;28;20246;-57
2022/07/20 01:00:17;;;;;;;4.60;4.20;;;;;24.60;100260.00;;;;2070443;28;20211;-57
2022/07/20 01:01:17;;;;;;;4.03;3.63;;;;;24.70;100263.00;;;;2070220;28;20277;-57
2022/07/20 01:02:18;;;;;;;4.17;3.77;;;;;24.70;100253.00;;;;2074861;28;20225;-57
2022/07/20 01:03:18;;;;;;;3.73;3.43;;;;;24.70;100254.00;;;;2069507;28;20217;-57
2022/07/20 01:04:18;;;;;;;3.93;3.50;;;;;24.70;100261.00;;;;2077498;28;20217;-56
2022/07/20 01:05:19;;;;;;;5.20;3.67;;;;;24.60;100262.00;;;;2069548;28;20245;-57
2022/07/20 01:06:19;;;;;;;4.30;3.43;;;;;24.70;100254.00;;;;2077744;28;20214;-56
2022/07/20 01:07:19;;;;;;;3.70;3.40;;;;;24.60;100249.00;;;;2077455;28;20635;-56
2022/07/20 01:08:20;;;;;;;4.53;3.83;;;;;24.60;100246.00;;;;2069591;28;20210;-57
2022/07/20 01:09:20;;;;;;;4.43;3.83;;;;;24.60;100250.00;;;;2059617;28;20262;-56
2022/07/20 01:10:21;;;;;;;4.13;3.73;;;;;24.60;100248.00;;;;2062682;28;20873;-56
2022/07/20 01:11:21;;;;;;;4.77;3.80;;;;;24.60;100251.00;;;;2078097;28;20241;-56
2022/07/20 01:12:22;;;;;;;5.03;4.00;;;;;24.50;100250.00;;;;2079604;28;20221;-56
2022/07/20 01:13:22;;;;;;;5.53;3.50;;;;;24.50;100242.00;;;;2079947;28;20300;-56
2022/07/20 01:14:23;;;;;;;4.17;3.77;;;;;24.50;100250.00;;;;2078928;28;20233;-56
2022/07/20 01:15:23;;;;;;;5.60;4.10;;;;;24.50;100245.00;;;;2079277;28;20257;-56
2022/07/20 01:16:23;;;;;;;4.67;3.53;;;;;24.50;100246.00;;;;2079891;28;20300;-56
2022/07/20 01:17:24;;;;;;;3.97;3.57;;;;;24.00;100271.00;;;;2076798;28;22173;-57
2022/07/20 01:18:24;;;;;;;4.23;3.47;;;;;24.50;100247.00;;;;2078564;28;20209;-56
2022/07/20 01:19:24;;;;;;;3.80;3.50;;;;;24.50;100241.00;;;;2078198;28;20214;-61
2022/07/20 01:20:25;;;;;;;5.30;4.90;;;;;24.50;100233.00;;;;2078953;28;20217;-62
2022/07/20 01:21:25;;;;;;;4.53;3.80;;;;;24.50;100236.00;;;;2078643;28;20209;-60
2022/07/20 01:22:25;;;;;;;4.43;3.90;;;;;24.60;100228.00;;;;2078779;28;20660;-59
2022/07/20 01:23:26;;;;;;;4.43;3.73;;;;;24.60;100228.00;;;;2076968;28;20295;-60
2022/07/20 01:24:27;;;;;;;4.37;3.83;;;;;24.50;100234.00;;;;2065318;28;20221;-57
2022/07/20 01:25:27;;;;;;;3.63;3.30;;;;;24.50;100236.00;;;;2061727;28;20446;-58
2022/07/20 01:26:27;;;;;;;4.00;3.60;;;;;24.50;100229.00;;;;2061713;28;20403;-58
2022/07/20 01:27:28;;;;;;;4.30;3.90;;;;;24.50;100236.00;;;;2078194;28;20232;-58
2022/07/20 01:28:28;;;;;;;5.13;3.80;;;;;24.50;100224.00;;;;2078851;28;20233;-58
2022/07/20 01:29:28;;;;;;;3.77;3.47;;;;;24.50;100233.00;;;;2071087;28;20297;-57
2022/07/20 01:30:29;;;;;;;5.17;3.60;;;;;24.50;100226.00;;;;2069137;28;20678;-58
2022/07/20 01:31:29;;;;;;;5.00;3.63;;;;;24.50;100229.00;;;;2075302;28;20577;-58
2022/07/20 01:32:29;;;;;;;3.83;3.50;;;;;24.50;100232.00;;;;2071777;28;20207;-57
2022/07/20 01:33:30;;;;;;;4.03;3.70;;;;;24.50;100226.00;;;;2070905;28;20210;-58
2022/07/20 01:34:30;;;;;;;4.03;3.67;;;;;24.50;100227.00;;;;2070929;28;20233;-58
2022/07/20 01:35:30;;;;;;;5.50;3.60;;;;;24.50;100226.00;;;;2071921;28;20222;-58
2022/07/20 01:36:31;;;;;;;3.80;3.50;;;;;24.50;100225.00;;;;2071735;28;20221;-57
2022/07/20 01:37:31;;;;;;;5.93;3.77;;;;;24.50;100227.00;;;;2070560;28;20268;-57
2022/07/20 01:38:31;;;;;;;3.77;3.47;;;;;24.50;100238.00;;;;2078167;28;20210;-57
2022/07/20 01:39:32;;;;;;;3.60;3.30;;;;;24.50;100232.00;;;;2076770;28;20213;-57
2022/07/20 01:40:32;;;;;;;4.40;4.00;;;;;24.40;100234.00;;;;2078934;28;20210;-57
2022/07/20 01:41:32;;;;;;;3.67;3.37;;;;;24.40;100221.00;;;;2079101;28;20289;-57
2022/07/20 01:42:33;;;;;;;3.97;3.60;;;;;24.40;100231.00;;;;2079482;28;20212;-57
2022/07/20 01:43:33;;;;;;;5.57;3.87;;;;;24.40;100227.00;;;;2079081;28;20311;-57
2022/07/20 01:44:33;;;;;;;4.07;3.70;;;;;24.50;100229.00;;;;2078711;28;20206;-57
2022/07/20 01:45:34;;;;;;;5.77;3.70;;;;;24.40;100228.00;;;;2079697;28;20210;-57
2022/07/20 01:46:34;;;;;;;4.20;3.80;;;;;24.40;100229.00;;;;2078828;28;20271;-57
2022/07/20 01:47:35;;;;;;;5.20;3.90;;;;;24.40;100220.00;;;;2078018;28;20305;-57
2022/07/20 01:48:35;;;;;;;4.20;3.80;;;;;24.40;100226.00;;;;2078491;28;20478;-57
2022/07/20 01:49:35;;;;;;;3.87;3.57;;;;;24.40;100225.00;;;;2078456;28;20221;-58
2022/07/20 01:50:36;;;;;;;3.80;3.50;;;;;24.40;100218.00;;;;2079487;28;20705;-58
2022/07/20 01:51:37;;;;;;;4.90;3.40;;;;;24.40;100228.00;;;;2070461;28;20218;-58
2022/07/20 01:52:37;;;;;;;5.10;3.40;;;;;24.40;100226.00;;;;2070914;28;20646;-57
2022/07/20 01:53:37;;;;;;;4.20;3.47;;;;;24.40;100228.00;;;;2079694;28;20551;-57
2022/07/20 01:54:38;;;;;;;3.67;3.23;;;;;24.40;100229.00;;;;2079408;28;20205;-59
2022/07/20 01:55:38;;;;;;;6.00;3.83;;;;;24.40;100229.00;;;;2079521;28;20209;-58
2022/07/20 01:56:40;;;;;;;3.70;3.40;;;;;24.40;100225.00;;;;2079545;28;20300;-57
2022/07/20 01:57:40;;;;;;;5.15;3.78;;;;;24.40;100228.00;;;;2069589;28;20210;-59
2022/07/20 01:58:41;;;;;;;3.70;3.40;;;;;24.40;100224.00;;;;2070828;28;20233;-57
2022/07/20 01:59:41;;;;;;;5.30;3.60;;;;;24.40;100219.00;;;;2079581;28;20320;-58
2022/07/20 02:00:41;;;;;;;4.10;3.30;;;;;24.40;100219.00;;;;2078638;28;20201;-58
2022/07/20 02:01:41;;;;;;;5.80;3.67;;;;;24.40;100217.00;;;;2079183;28;20209;-57
2022/07/20 02:02:42;;;;;;;4.40;3.73;;;;;24.40;100224.00;;;;2079752;28;20283;-56
2022/07/20 02:03:42;;;;;;;6.60;3.43;;;;;24.40;100223.00;;;;2079562;28;20209;-59
2022/07/20 02:04:42;;;;;;;4.10;3.63;;;;;24.40;100218.00;;;;2079319;28;20307;-57
2022/07/20 02:05:43;;;;;;;3.90;3.60;;;;;24.40;100216.00;;;;2079745;28;20232;-57
2022/07/20 02:06:43;;;;;;;4.17;3.60;;;;;24.40;100218.00;;;;2079290;28;20205;-57
2022/07/20 02:07:44;;;;;;;5.43;3.70;;;;;24.40;100228.00;;;;2078592;28;20214;-57
2022/07/20 02:08:44;;;;;;;4.50;3.50;;;;;24.30;100220.00;;;;2078960;28;20201;-57
2022/07/20 02:09:44;;;;;;;4.57;4.17;;;;;24.30;100222.00;;;;2070654;28;20694;-57
2022/07/20 02:10:45;;;;;;;5.30;4.17;;;;;24.30;100229.00;;;;2078416;28;20247;-58
2022/07/20 02:11:45;;;;;;;5.07;3.57;;;;;24.30;100223.00;;;;2079467;28;20206;-57
2022/07/20 02:12:45;;;;;;;3.90;3.60;;;;;24.30;100214.00;;;;2078862;28;20210;-58
2022/07/20 02:13:45;;;;;;;3.33;3.13;;;;;24.30;100220.00;;;;2078865;28;20256;-57
2022/07/20 02:14:46;;;;;;;3.83;3.47;;;;;24.40;100239.00;;;;2079250;28;20206;-57
2022/07/20 02:17:05;;;;;;;4.40;4.00;;;;;24.30;100222.00;;;;2078477;28;20221;-59
2022/07/20 02:18:07;;;;;;;5.30;3.53;;;;;24.30;100209.00;;;;2077774;28;20304;-58
2022/07/20 02:19:07;;;;;;;5.60;4.15;;;;;24.30;100223.00;;;;2079028;28;20214;-56
2022/07/20 02:20:08;;;;;;;6.40;3.70;;;;;24.30;100220.00;;;;2079585;28;20221;-58
2022/07/20 02:21:08;;;;;;;3.50;3.20;;;;;24.40;100214.00;;;;2079595;28;20225;-57
2022/07/20 02:22:09;;;;;;;6.80;3.60;;;;;24.40;100210.00;;;;2079449;28;20219;-57
2022/07/20 02:23:09;;;;;;;4.00;3.57;;;;;24.40;100208.00;;;;2079050;28;20233;-57
2022/07/20 02:24:10;;;;;;;5.17;3.87;;;;;24.40;100216.00;;;;2078349;28;20272;-58
2022/07/20 02:25:10;;;;;;;7.77;3.60;;;;;24.40;100207.00;;;;2078740;28;20737;-56
2022/07/20 02:26:10;;;;;;;5.03;3.30;;;;;24.40;100207.00;;;;2076675;28;20232;-57
2022/07/20 02:27:11;;;;;;;3.90;3.50;;;;;24.40;100212.00;;;;2069773;28;20456;-58
2022/07/20 02:28:11;;;;;;;6.40;3.70;;;;;24.40;100218.00;;;;2070489;28;20598;-57
2022/07/20 02:29:11;;;;;;;5.60;3.60;;;;;24.50;100214.00;;;;2070613;28;20207;-57
2022/07/20 02:30:12;;;;;;;5.13;3.20;;;;;24.50;100214.00;;;;2070656;28;20214;-57
2022/07/20 02:31:12;;;;;;;4.43;3.73;;;;;24.50;100210.00;;;;2071221;28;20313;-57
2022/07/20 02:32:13;;;;;;;4.67;3.53;;;;;24.60;100215.00;;;;2069221;28;20245;-57
2022/07/20 02:33:13;;;;;;;3.93;3.47;;;;;24.60;100207.00;;;;2069806;28;20291;-57
2022/07/20 02:34:13;;;;;;;5.00;3.73;;;;;24.70;100206.00;;;;2069591;28;20223;-57
2022/07/20 02:35:13;;;;;;;3.70;3.40;;;;;24.70;100210.00;;;;2069896;28;20222;-57
2022/07/20 02:36:14;;;;;;;3.87;3.10;;;;;24.30;100216.00;;;;2070433;28;20217;-57
2022/07/20 02:37:14;;;;;;;3.37;3.10;;;;;24.70;100215.00;;;;2070307;28;20304;-58
2022/07/20 02:38:15;;;;;;;5.17;3.50;;;;;24.70;100208.00;;;;2069949;28;20294;-57
2022/07/20 02:39:15;;;;;;;3.63;3.33;;;;;24.70;100211.00;;;;2070977;28;20312;-57
2022/07/20 02:40:16;;;;;;;3.90;3.50;;;;;24.70;100213.00;;;;2070916;28;20772;-57
2022/07/20 02:41:16;;;;;;;4.13;3.20;;;;;24.80;100216.00;;;;2070908;28;20718;-57
2022/07/20 02:42:16;;;;;;;4.10;3.40;;;;;24.80;100208.00;;;;2071177;28;20211;-58
2022/07/20 02:43:17;;;;;;;3.63;3.33;;;;;24.80;100209.00;;;;2071221;28;20249;-57
2022/07/20 02:44:17;;;;;;;3.40;3.10;;;;;24.80;100215.00;;;;2070881;28;20785;-58
2022/07/20 02:45:17;;;;;;;5.83;3.37;;;;;24.80;100208.00;;;;2070497;28;20313;-57
2022/07/20 02:46:18;;;;;;;4.00;3.50;;;;;24.80;100221.00;;;;2070385;28;20805;-57
2022/07/20 02:47:18;;;;;;;3.97;3.50;;;;;24.80;100212.00;;;;2070581;28;20551;-56
2022/07/20 02:48:18;;;;;;;4.80;3.20;;;;;24.80;100217.00;;;;2071019;28;20596;-57
2022/07/20 02:49:19;;;;;;;4.87;3.13;;;;;24.80;100108.00;;;;2070286;28;20655;-57
2022/07/20 02:50:19;;;;;;;5.03;3.50;;;;;24.90;100219.00;;;;2070604;28;20577;-58
2022/07/20 02:51:19;;;;;;;4.03;3.60;;;;;24.90;100209.00;;;;2071159;28;20618;-57
2022/07/20 02:52:19;;;;;;;4.23;3.83;;;;;24.90;100212.00;;;;2071078;28;20633;-57
2022/07/20 02:53:20;;;;;;;3.80;3.50;;;;;24.90;100211.00;;;;2070953;28;20609;-57
2022/07/20 02:54:20;;;;;;;3.90;3.60;;;;;24.90;100213.00;;;;2072130;28;20707;-57
2022/07/20 02:55:21;;;;;;;3.60;3.30;;;;;24.90;100212.00;;;;2078434;28;20218;-57
2022/07/20 02:56:21;;;;;;;4.03;3.73;;;;;24.90;100211.00;;;;2078972;28;20313;-57
2022/07/20 02:57:21;;;;;;;3.60;3.30;;;;;24.90;100207.00;;;;2077888;28;20202;-57
2022/07/20 02:58:21;;;;;;;3.90;3.50;;;;;24.90;100211.00;;;;2078890;28;20280;-57
2022/07/20 02:59:22;;;;;;;4.43;3.67;;;;;24.90;100214.00;;;;2078860;28;20206;-57
2022/07/20 03:00:22;;;;;;;4.13;3.73;;;;;24.90;100217.00;;;;2078547;28;20210;-57
2022/07/20 03:01:23;;;;;;;4.40;4.10;;;;;24.90;100181.00;;;;2078111;28;20326;-57
2022/07/20 03:02:23;;;;;;;3.80;3.50;;;;;25.00;100219.00;;;;2069895;28;20210;-57
2022/07/20 03:03:23;;;;;;;3.90;3.60;;;;;25.00;100216.00;;;;2078303;28;20705;-57
2022/07/20 03:04:24;;;;;;;6.13;4.00;;;;;24.90;100209.00;;;;2078524;28;21120;-58
2022/07/20 03:05:24;;;;;;;3.97;3.47;;;;;25.00;100205.00;;;;2076936;28;20710;-57
2022/07/20 03:06:24;;;;;;;4.10;3.50;;;;;25.00;100213.00;;;;2077918;28;20367;-58
2022/07/20 03:07:25;;;;;;;6.83;3.43;;;;;25.00;100211.00;;;;2077275;28;20217;-58
2022/07/20 03:08:25;;;;;;;3.60;3.30;;;;;25.00;100217.00;;;;2078873;28;20205;-57
2022/07/20 03:09:25;;;;;;;4.23;3.43;;;;;25.00;100201.00;;;;2075186;28;20252;-57
2022/07/20 03:10:26;;;;;;;3.60;3.30;;;;;25.00;100214.00;;;;2070855;28;20218;-57
2022/07/20 03:11:26;;;;;;;3.60;3.30;;;;;25.00;100211.00;;;;2070288;28;20237;-59
2022/07/20 03:12:26;;;;;;;4.17;3.40;;;;;25.00;100215.00;;;;2067196;28;20214;-57
2022/07/20 03:13:27;;;;;;;6.10;3.50;;;;;25.00;100214.00;;;;2070788;28;20246;-57
2022/07/20 03:14:27;;;;;;;3.90;3.60;;;;;25.00;100214.00;;;;2070268;28;20248;-58
2022/07/20 03:15:27;;;;;;;4.27;3.87;;;;;25.00;100209.00;;;;2070032;28;20210;-58
2022/07/20 03:16:28;;;;;;;4.53;3.27;;;;;25.00;100204.00;;;;2070571;28;20301;-57
2022/07/20 03:17:28;;;;;;;3.50;3.20;;;;;25.00;100203.00;;;;2070040;28;20720;-57
2022/07/20 03:18:28;;;;;;;3.70;2.93;;;;;25.00;100211.00;;;;2070224;28;20210;-57
2022/07/20 03:19:29;;;;;;;3.47;3.17;;;;;25.00;100205.00;;;;2070345;28;20210;-58
2022/07/20 03:20:31;;;;;;;4.53;3.50;;;;;25.00;100202.00;;;;2070203;28;20217;-58
2022/07/20 03:21:32;;;;;;;5.32;3.80;;;;;25.00;100208.00;;;;2070307;28;20210;-57
2022/07/20 03:22:32;;;;;;;4.07;3.67;;;;;25.00;100200.00;;;;2077469;28;20206;-57
2022/07/20 03:23:32;;;;;;;4.87;3.10;;;;;25.00;100204.00;;;;2078777;28;20221;-57
2022/07/20 03:24:33;;;;;;;4.37;3.60;;;;;25.00;100203.00;;;;2078702;28;20237;-59
2022/07/20 03:25:33;;;;;;;3.87;3.47;;;;;25.00;100197.00;;;;2078927;28;20608;-58
2022/07/20 03:26:33;;;;;;;5.00;3.50;;;;;25.00;100197.00;;;;2075811;28;20897;-57
2022/07/20 03:27:35;;;;;;;3.88;3.20;;;;;25.00;100204.00;;;;2068765;28;20584;-59
2022/07/20 03:28:36;;;;;;;3.87;3.50;;;;;25.00;100204.00;;;;2070269;28;20222;-57
2022/07/20 03:29:36;;;;;;;6.03;3.73;;;;;25.00;100200.00;;;;2070951;28;20723;-56
2022/07/20 03:30:36;;;;;;;3.57;3.27;;;;;25.00;100204.00;;;;2070182;28;20690;-56
2022/07/20 03:31:37;;;;;;;3.90;3.60;;;;;25.10;100205.00;;;;2070081;28;20225;-56
2022/07/20 03:32:37;;;;;;;3.57;3.27;;;;;25.10;100201.00;;;;2070812;28;20221;-58
2022/07/20 03:33:37;;;;;;;4.40;3.37;;;;;25.10;100200.00;;;;2070598;28;20241;-58
2022/07/20 03:34:38;;;;;;;3.73;3.43;;;;;25.10;100196.00;;;;2070249;28;20224;-58
2022/07/20 03:35:38;;;;;;;4.20;3.20;;;;;25.10;100211.00;;;;2070676;28;20231;-56
2022/07/20 03:36:38;;;;;;;4.23;3.50;;;;;25.10;100209.00;;;;2070758;28;20305;-57
2022/07/20 03:37:39;;;;;;;4.10;3.53;;;;;25.10;100206.00;;;;2069581;28;20225;-57
2022/07/20 03:38:39;;;;;;;5.40;3.47;;;;;25.10;100205.00;;;;2070079;28;20268;-57
2022/07/20 03:39:39;;;;;;;6.50;3.60;;;;;25.10;100223.00;;;;2068623;28;20238;-57
2022/07/20 03:40:40;;;;;;;5.13;3.50;;;;;25.10;100203.00;;;;2070144;28;20210;-58
2022/07/20 03:41:40;;;;;;;5.03;3.57;;;;;25.10;100147.00;;;;2070160;28;20222;-57
2022/07/20 03:42:40;;;;;;;3.73;3.33;;;;;25.10;100203.00;;;;2069922;28;20218;-57
2022/07/20 03:43:41;;;;;;;3.77;3.00;;;;;25.10;100208.00;;;;2070412;28;20591;-57
2022/07/20 03:44:41;;;;;;;4.33;3.10;;;;;25.10;100213.00;;;;2070711;28;20233;-58
2022/07/20 03:45:41;;;;;;;3.93;3.20;;;;;25.10;100214.00;;;;2069805;28;20214;-58
2022/07/20 03:46:42;;;;;;;4.87;3.67;;;;;25.10;100215.00;;;;2070769;28;20224;-57
2022/07/20 03:47:42;;;;;;;5.03;3.03;;;;;25.10;100217.00;;;;2069706;28;20206;-58
2022/07/20 03:48:42;;;;;;;5.17;3.50;;;;;25.10;100217.00;;;;2070471;28;20229;-58
2022/07/20 03:49:43;;;;;;;4.20;3.80;;;;;25.10;100212.00;;;;2070729;28;20222;-57
2022/07/20 03:50:44;;;;;;;5.40;3.67;;;;;25.10;100228.00;;;;2070627;28;20272;-57
2022/07/20 03:51:44;;;;;;;3.88;3.40;;;;;25.10;100231.00;;;;2070577;28;20305;-58
2022/07/20 03:52:45;;;;;;;4.17;3.73;;;;;25.10;100245.00;;;;2070809;28;20218;-56
2022/07/20 03:53:46;;;;;;;5.70;3.37;;;;;25.10;100250.00;;;;2070022;28;20297;-57
2022/07/20 03:54:46;;;;;;;3.70;3.37;;;;;25.20;100265.00;;;;2069846;28;20202;-57
2022/07/20 03:55:46;;;;;;;3.90;3.50;;;;;25.10;100288.00;;;;2070639;28;21298;-57
2022/07/20 03:56:47;;;;;;;5.23;3.40;;;;;25.10;100262.00;;;;2070046;28;20698;-58
2022/07/20 03:57:47;;;;;;;4.37;3.73;;;;;25.10;100257.00;;;;2068825;28;20683;-58
2022/07/20 03:58:47;;;;;;;4.57;3.43;;;;;25.10;100261.00;;;;2070848;28;20218;-56
2022/07/20 03:59:48;;;;;;;5.17;4.27;;;;;25.10;100263.00;;;;2070029;28;20221;-58
2022/07/20 04:00:48;;;;;;;3.63;3.23;;;;;25.10;100261.00;;;;2069991;28;20249;-57
2022/07/20 04:01:48;;;;;;;4.30;3.73;;;;;25.10;100254.00;;;;2070676;28;20209;-57
2022/07/20 04:02:49;;;;;;;3.70;3.37;;;;;25.10;100264.00;;;;2070697;28;20225;-57
2022/07/20 04:03:49;;;;;;;4.00;3.23;;;;;25.10;100269.00;;;;2070554;28;20261;-58
2022/07/20 04:04:49;;;;;;;5.07;3.80;;;;;25.10;100259.00;;;;2070642;28;20217;-58
2022/07/20 04:05:49;;;;;;;3.67;3.37;;;;;25.10;100258.00;;;;2070372;28;20214;-57
2022/07/20 04:06:50;;;;;;;5.70;3.50;;;;;25.20;100253.00;;;;2070741;28;20242;-58
2022/07/20 04:07:50;;;;;;;7.53;3.30;;;;;25.20;100261.00;;;;2069809;28;20222;-58
2022/07/20 04:08:50;;;;;;;4.03;3.60;;;;;25.20;100246.00;;;;2070792;28;20229;-57
2022/07/20 04:09:51;;;;;;;4.00;3.53;;;;;25.20;100256.00;;;;2069959;28;20226;-58
2022/07/20 04:10:51;;;;;;;3.87;3.03;;;;;25.00;100258.00;;;;2070013;28;20210;-58
2022/07/20 04:11:51;;;;;;;6.67;3.70;;;;;25.20;100262.00;;;;2070581;28;20269;-58
2022/07/20 04:12:52;;;;;;;3.90;3.20;;;;;25.20;100262.00;;;;2069959;28;20260;-58
2022/07/20 04:13:52;;;;;;;4.60;3.20;;;;;25.10;100257.00;;;;2077239;28;20233;-57
2022/07/20 04:14:53;;;;;;;3.97;3.37;;;;;25.20;100262.00;;;;2067643;28;20218;-57
2022/07/20 04:15:53;;;;;;;4.40;3.30;;;;;25.20;100267.00;;;;2077862;28;20669;-57
2022/07/20 04:16:53;;;;;;;4.33;3.90;;;;;25.10;100264.00;;;;2077739;28;20949;-56
2022/07/20 04:17:53;;;;;;;3.80;3.10;;;;;25.10;100261.00;;;;2077018;28;20614;-61
2022/07/20 04:18:54;;;;;;;3.67;3.27;;;;;25.20;100261.00;;;;2078017;28;20308;-59
2022/07/20 04:19:54;;;;;;;4.97;3.97;;;;;25.20;100263.00;;;;2069603;28;20253;-57
2022/07/20 04:20:54;;;;;;;3.57;3.27;;;;;25.20;100272.00;;;;2078094;28;20209;-57
2022/07/20 04:21:58;;;;;;;3.60;3.30;;;;;25.20;100273.00;;;;2078644;28;20212;-57
2022/07/20 04:22:59;;;;;;;4.68;3.60;;;;;25.20;100278.00;;;;2077826;28;20217;-58
2022/07/20 04:23:59;;;;;;;4.63;3.50;;;;;25.10;100279.00;;;;2077826;28;20244;-57
2022/07/20 04:24:59;;;;;;;4.17;3.63;;;;;25.20;100280.00;;;;2078537;28;20213;-57
2022/07/20 04:26:00;;;;;;;4.97;3.30;;;;;25.10;100285.00;;;;2075380;28;20221;-58
2022/07/20 04:27:00;;;;;;;8.10;3.70;;;;;25.20;100290.00;;;;2069875;28;20260;-57
2022/07/20 04:28:01;;;;;;;3.90;3.60;;;;;25.20;100284.00;;;;2060992;28;20227;-57
2022/07/20 04:29:01;;;;;;;4.40;4.00;;;;;25.20;100285.00;;;;2069736;28;20734;-57
2022/07/20 04:30:01;;;;;;;6.17;4.00;;;;;25.20;100286.00;;;;2077285;28;20205;-57
2022/07/20 04:31:02;;;;;;;3.90;3.50;;;;;25.20;100296.00;;;;2078674;28;20206;-56
2022/07/20 04:32:03;;;;;;;4.40;3.50;;;;;25.20;100294.00;;;;2078452;28;20217;-57
2022/07/20 04:33:03;;;;;;;3.90;3.60;;;;;25.20;100297.00;;;;2078828;28;20210;-57
2022/07/20 04:34:03;;;;;;;3.33;3.07;;;;;25.20;100299.00;;;;2078675;28;20216;-57
2022/07/20 04:35:04;;;;;;;3.93;3.63;;;;;25.20;100300.00;;;;2078335;28;20206;-57
2022/07/20 04:36:05;;;;;;;4.20;3.50;;;;;25.20;100307.00;;;;2072836;28;20248;-57
2022/07/20 04:37:05;;;;;;;4.13;3.30;;;;;25.20;100302.00;;;;2086044;28;20508;-57
2022/07/20 04:38:06;;;;;;;3.90;3.60;;;;;25.20;100309.00;;;;2077160;28;20233;-56
2022/07/20 04:39:06;;;;;;;3.73;3.30;;;;;25.20;100313.00;;;;2072743;28;20221;-57
2022/07/20 04:40:07;;;;;;;5.83;3.90;;;;;25.20;100315.00;;;;2077011;28;20608;-57
2022/07/20 04:41:07;;;;;;;4.03;3.30;;;;;25.20;100309.00;;;;2061278;28;20228;-56
2022/07/20 04:42:08;;;;;;;6.20;4.23;;;;;25.20;100320.00;;;;2069907;28;21006;-56
2022/07/20 04:43:08;;;;;;;6.17;3.60;;;;;25.20;100322.00;;;;2069790;28;20215;-56
2022/07/20 04:44:08;;;;;;;3.80;3.50;;;;;25.20;100315.00;;;;2069739;28;20222;-56
2022/07/20 04:45:09;;;;;;;3.40;3.07;;;;;25.20;100318.00;;;;2070228;28;20217;-56
2022/07/20 04:46:10;;;;;;;3.67;3.38;;;;;25.20;100330.00;;;;2070665;28;20221;-56
2022/07/20 04:47:10;;;;;;;3.50;3.20;;;;;25.20;100317.00;;;;2071500;28;20218;-56
2022/07/20 04:48:11;;;;;;;4.30;3.90;;;;;25.20;100315.00;;;;2070919;28;20299;-56
2022/07/20 04:49:11;;;;;;;6.73;3.73;;;;;25.20;100313.00;;;;2072143;28;20218;-57
2022/07/20 04:50:12;;;;;;;3.93;3.63;;;;;25.20;100326.00;;;;2072121;28;20755;-56
2022/07/20 04:51:12;;;;;;;4.20;3.23;;;;;25.20;100319.00;;;;2071173;28;20701;-57
2022/07/20 04:52:13;;;;;;;3.97;3.50;;;;;25.30;100315.00;;;;2071332;28;20206;-57
2022/07/20 04:53:14;;;;;;;4.80;3.70;;;;;25.30;100319.00;;;;2072125;28;20210;-56
2022/07/20 04:54:14;;;;;;;3.63;3.33;;;;;25.30;100331.00;;;;2071010;28;20825;-56
2022/07/20 04:55:14;;;;;;;7.40;3.87;;;;;25.30;100331.00;;;;2074155;28;20201;-57
2022/07/20 04:56:16;;;;;;;4.40;4.00;;;;;25.30;100335.00;;;;2080177;28;20245;-56
2022/07/20 04:57:16;;;;;;;5.10;3.60;;;;;25.30;100330.00;;;;2079685;28;20217;-56
2022/07/20 04:58:16;;;;;;;5.90;3.50;;;;;25.30;100323.00;;;;2079817;28;20216;-56
2022/07/20 04:59:17;;;;;;;5.07;3.77;;;;;25.30;100339.00;;;;2079989;28;20218;-57
2022/07/20 05:00:17;;;;;;;3.50;3.20;;;;;25.30;100342.00;;;;2076075;28;20250;-56
2022/07/20 05:01:18;;;;;;;4.43;3.37;;;;;25.30;100340.00;;;;2071988;28;20288;-56
2022/07/20 05:02:18;;;;;;;4.80;3.80;;;;;25.30;100342.00;;;;2071951;28;20246;-56